ADDS METAR Data INFO
IDs: Format: Raw Decoded Include TAF

Data at: 1208 UTC 21 Jun 2018

KRZR 211155Z AUTO 00000KT 4SM BR SCT032 BKN040 OVC090 23/23 A2990 RMK A01 P0007
KRZR 211135Z AUTO 27004KT 2 1/2SM BR SCT032 BKN047 OVC065 24/22 A2991 RMK A01
KRZR 211115Z AUTO 00000KT 10SM SCT060 BKN070 OVC080 23/22 A2990 RMK A01
KRZR 211055Z AUTO 00000KT 10SM BKN065 OVC075 23/22 A2989 RMK A01
KRZR 211035Z AUTO 00000KT 10SM SCT070 BKN085 OVC110 23/22 A2988 RMK A01
KRZR 211015Z AUTO 00000KT 10SM OVC100 24/22 A2988 RMK A01
KRZR 210955Z AUTO 00000KT 10SM BKN090 OVC110 24/22 A2988 RMK A01
KRZR 210935Z AUTO 00000KT 10SM SCT090 OVC120 23/22 A2987 RMK A01
KRZR 210915Z AUTO 00000KT 10SM BKN085 OVC120 23/22 A2987 RMK A01
KRZR 210855Z AUTO 00000KT 10SM OVC080 23/22 A2988 RMK A01
KRZR 210835Z AUTO 00000KT 10SM FEW065 OVC075 24/23 A2988 RMK A01
KRZR 210815Z AUTO 00000KT 10SM OVC070 24/23 A2988 RMK A01
KRZR 210755Z AUTO 00000KT 10SM BKN075 OVC095 24/23 A2988 RMK A01
KRZR 210735Z AUTO 00000KT 10SM FEW065 OVC090 24/22 A2989 RMK A01
KRZR 210715Z AUTO 00000KT 10SM FEW065 FEW080 OVC095 24/23 A2989 RMK A01
KRZR 210655Z AUTO 00000KT 10SM FEW060 SCT080 OVC110 24/22 A2990 RMK A01
KRZR 210635Z AUTO 00000KT 10SM OVC110 24/23 A2990 RMK A01
KRZR 210615Z AUTO 00000KT 10SM FEW038 FEW060 OVC110 24/22 A2991 RMK A01
KRZR 210555Z AUTO 00000KT 10SM FEW060 FEW075 BKN110 24/22 A2991 RMK A01
KRZR 210535Z AUTO 00000KT 10SM FEW120 25/22 A2992 RMK A01
KRZR 210515Z AUTO 00000KT 10SM FEW110 25/22 A2992 RMK A01
KRZR 210455Z AUTO 00000KT 10SM CLR 25/22 A2993 RMK A01
KRZR 210435Z AUTO 00000KT 10SM FEW036 SCT100 BKN120 25/22 A2993 RMK A01
KRZR 210415Z AUTO 00000KT 10SM FEW037 SCT070 BKN100 25/22 A2993 RMK A01
KRZR 210355Z AUTO 00000KT 10SM SCT110 26/22 A2993 RMK A01
KRZR 210335Z AUTO 00000KT 10SM FEW042 FEW055 25/22 A2993 RMK A01
KRZR 210315Z AUTO 00000KT 10SM FEW038 FEW043 SCT055 25/22 A2993 RMK A01
KRZR 210255Z AUTO 00000KT 10SM CLR 26/22 A2993 RMK A01
KRZR 210235Z AUTO 00000KT 10SM CLR 26/22 A2993 RMK A01
KRZR 210215Z AUTO 00000KT 10SM CLR 26/22 A2992 RMK A01
KRZR 210155Z AUTO 00000KT 10SM SCT120 27/22 A2991 RMK A01
KRZR 210135Z AUTO 00000KT 10SM BKN120 26/22 A2991 RMK A01
KRZR 210115Z AUTO 00000KT 10SM CLR 27/21 A2990 RMK A01
KRZR 210055Z AUTO 00000KT 10SM FEW048 28/21 A2990 RMK A01
KRZR 210035Z AUTO 00000KT 10SM FEW048 29/21 A2990 RMK A01
KRZR 210015Z AUTO 00000KT 10SM CLR 29/20 A2990 RMK A01
KRZR 202355Z AUTO 00000KT 10SM FEW047 30/20 A2990 RMK A01
KRZR 202335Z AUTO 32003KT 10SM FEW047 30/20 A2989 RMK A01
KRZR 202315Z AUTO 28005G10KT 10SM FEW046 31/20 A2989 RMK A01
KRZR 202255Z AUTO 27007KT 10SM FEW048 SCT055 SCT100 31/20 A2989 RMK A01
KRZR 202235Z AUTO VRB05KT 10SM SCT048 SCT055 BKN095 31/20 A2990 RMK A01
KRZR 202215Z AUTO 25006KT 10SM FEW050 FEW095 SCT120 31/20 A2990 RMK A01
KRZR 202155Z AUTO 29005KT 10SM FEW050 FEW095 31/20 A2991 RMK A01
KRZR 202135Z AUTO 26006G12KT 10SM CLR 31/19 A2991 RMK A01
KRZR 202115Z AUTO 27007KT 10SM CLR 32/19 A2991 RMK A01
KRZR 202055Z AUTO VRB07KT 10SM FEW095 SCT120 32/20 A2992 RMK A01
KRZR 202035Z AUTO 27008KT 10SM SCT090 31/19 A2992 RMK A01
KRZR 202015Z AUTO 30009KT 10SM SCT090 SCT110 32/19 A2992 RMK A01
KRZR 201955Z AUTO 28006KT 10SM BKN090 31/19 A2993 RMK A01
KRZR 201935Z AUTO VRB05KT 10SM SCT090 32/19 A2993 RMK A01
KRZR 201915Z AUTO 28007KT 250V310 10SM FEW095 32/19 A2994 RMK A01
KRZR 201855Z AUTO 28007KT FEW055 SCT095 33/19 A2994 RMK A01
KRZR 201835Z AUTO 25007KT 10SM SCT055 SCT100 32/18 A2994 RMK A01
KRZR 201815Z AUTO 27006KT 10SM SCT050 32/19 A2995 RMK A01
KRZR 201755Z AUTO VRB06G11KT 10SM FEW050 33/18 A2995 RMK A01
KRZR 201735Z AUTO VRB05G10KT 10SM FEW050 32/19 A2995 RMK A01
KRZR 201715Z AUTO 33006G11KT 10SM CLR 32/19 A2996 RMK A01
KRZR 201655Z AUTO VRB06KT 10SM FEW049 31/19 A2996 RMK A01
KRZR 201635Z AUTO VRB04G11KT 10SM CLR 31/18 A2997 RMK A01
KRZR 201615Z AUTO 28006G13KT 10SM CLR 31/19 A2998 RMK A01
KRZR 201555Z AUTO 27005KT 10SM CLR 32/20 A2997 RMK A01
KRZR 201535Z AUTO 31007KT 10SM CLR 31/19 A2998 RMK A01
KRZR 201515Z AUTO 31006KT 10SM CLR 30/19 A2998 RMK A01
KRZR 201455Z AUTO 00000KT 10SM CLR 29/21 A2999 RMK A01
KRZR 201435Z AUTO VRB04KT 10SM CLR 29/21 A2998 RMK A01
KRZR 201415Z AUTO 01005KT 10SM CLR 28/21 A2999 RMK A01
KRZR 201355Z AUTO 00000KT 10SM FEW120 28/21 A2999 RMK A01
KRZR 201335Z AUTO 00000KT 10SM BKN120 27/22 A2999 RMK A01
KRZR 201315Z AUTO 00000KT 10SM CLR 26/22 A2999 RMK A01
KRZR 201255Z AUTO 00000KT 10SM CLR 26/22 A2999 RMK A01
KRZR 201235Z AUTO 00000KT 10SM CLR 25/22 A2999 RMK A01
KRZR 201215Z AUTO 00000KT 10SM CLR 24/22 A2998 RMK A01
KRZR 201155Z AUTO 00000KT 10SM CLR 24/22 A2999 RMK A01
KRZR 201135Z AUTO 00000KT 10SM CLR 23/22 A2998 RMK A01
KRZR 201115Z AUTO 00000KT 10SM CLR 21/21 A2998 RMK A01
KRZR 201055Z AUTO 00000KT 10SM CLR 21/21 A2997 RMK A01
KRZR 201035Z AUTO 00000KT 10SM CLR 21/21 A2997 RMK A01
KRZR 201015Z AUTO 00000KT 10SM CLR 21/21 A2997 RMK A01
KRZR 200955Z AUTO 00000KT 10SM CLR 21/21 A2996 RMK A01
KRZR 200935Z AUTO 00000KT 10SM CLR 21/21 A2996 RMK A01
KRZR 200915Z AUTO 00000KT 10SM CLR 22/21 A2996 RMK A01
KRZR 200855Z AUTO 00000KT 10SM CLR 22/21 A2996 RMK A01
KRZR 200835Z AUTO 00000KT 10SM CLR 22/21 A2996 RMK A01
KRZR 200815Z AUTO 00000KT 10SM CLR 22/21 A2996 RMK A01
KRZR 200755Z AUTO 00000KT 10SM CLR 22/21 A2996 RMK A01
KRZR 200735Z AUTO 00000KT 10SM CLR 22/22 A2996 RMK A01
KRZR 200715Z AUTO 00000KT 10SM CLR 22/22 A2997 RMK A01
KRZR 200655Z AUTO 00000KT 10SM CLR 22/22 A2997 RMK A01
KRZR 200635Z AUTO 00000KT 10SM CLR 22/21 A2997 RMK A01
KRZR 200615Z AUTO 00000KT 10SM CLR 22/21 A2998 RMK A01
KRZR 200555Z AUTO 00000KT 10SM CLR 23/21 A2998 RMK A01
KRZR 200535Z AUTO 00000KT 10SM CLR 23/22 A2998 RMK A01
KRZR 200515Z AUTO 00000KT 10SM CLR 23/21 A2998 RMK A01
KRZR 200455Z AUTO 00000KT 10SM FEW060 FEW120 23/21 A2998 RMK A01
KRZR 200435Z AUTO 00000KT 10SM FEW120 24/22 A2998 RMK A01
KRZR 200415Z AUTO 00000KT 10SM CLR 24/21 A2998 RMK A01
KRZR 200355Z AUTO 00000KT 10SM CLR 24/21 A2998 RMK A01
KRZR 200335Z AUTO 00000KT 10SM CLR 25/21 A2998 RMK A01
KRZR 200315Z AUTO 00000KT 10SM CLR 25/21 A2998 RMK A01
KRZR 200255Z AUTO 00000KT 10SM CLR 25/21 A2998 RMK A01
KRZR 200235Z AUTO 00000KT 10SM CLR 26/21 A2997 RMK A01
KRZR 200215Z AUTO 30003KT 10SM CLR 28/21 A2997 RMK A01
KRZR 200155Z AUTO 31003KT 10SM CLR 28/21 A2997 RMK A01
KRZR 200135Z AUTO 30003KT 10SM CLR 29/21 A2997 RMK A01
KRZR 200115Z AUTO 29003KT 10SM CLR 29/21 A2996 RMK A01
KRZR 200055Z AUTO 30003KT 10SM CLR 30/20 A2996 RMK A01
KRZR 200035Z AUTO 32005KT 10SM FEW047 30/21 A2996 RMK A01
KRZR 200015Z AUTO VRB04KT 10SM FEW047 31/22 A2995 RMK A01